createdAt,value
2018-09-03T00:00:44.467Z,0.00
2018-09-03T00:01:44.502Z,0.00
2018-09-03T00:02:44.540Z,0.00
2018-09-03T00:03:44.570Z,0.00
2018-09-03T00:04:44.604Z,0.00
2018-09-03T00:05:44.637Z,0.00
2018-09-03T00:06:44.671Z,0.00
2018-09-03T00:07:44.705Z,0.00
2018-09-03T00:08:44.739Z,0.00
2018-09-03T00:09:44.773Z,0.00
2018-09-03T00:10:44.807Z,0.00
2018-09-03T00:11:44.840Z,0.00
2018-09-03T00:12:44.874Z,0.00
2018-09-03T00:13:44.907Z,0.00
2018-09-03T00:14:44.946Z,0.00
2018-09-03T00:15:44.976Z,0.00
2018-09-03T00:16:45.010Z,0.00
2018-09-03T00:17:45.043Z,0.00
2018-09-03T00:18:45.080Z,0.00
2018-09-03T00:19:45.113Z,0.00
2018-09-03T00:20:45.148Z,0.00
2018-09-03T00:21:45.178Z,0.00
2018-09-03T00:22:45.213Z,0.00
2018-09-03T00:23:45.246Z,0.00
2018-09-03T00:24:45.283Z,0.00
2018-09-03T00:25:45.313Z,0.00
2018-09-03T00:26:45.347Z,0.00
2018-09-03T00:27:45.381Z,0.00
2018-09-03T00:28:45.413Z,0.00
2018-09-03T00:29:45.448Z,0.00
2018-09-03T00:30:45.481Z,0.00
2018-09-03T00:31:45.515Z,0.00
2018-09-03T00:32:45.549Z,0.00
2018-09-03T00:33:45.581Z,0.00
2018-09-03T00:34:45.615Z,0.00
2018-09-03T00:35:45.649Z,0.00
2018-09-03T00:36:45.682Z,0.00
2018-09-03T00:37:45.716Z,0.00
2018-09-03T00:38:45.750Z,0.00
2018-09-03T00:39:45.791Z,0.00
2018-09-03T00:40:45.816Z,0.00
2018-09-03T00:41:45.850Z,0.00
2018-09-03T00:42:45.884Z,0.00
2018-09-03T00:43:45.918Z,0.00
2018-09-03T00:44:45.950Z,0.00
2018-09-03T00:45:45.984Z,0.00
2018-09-03T00:46:46.018Z,0.00
2018-09-03T00:47:46.052Z,0.00
2018-09-03T00:48:46.085Z,0.00
2018-09-03T00:49:46.118Z,0.00
2018-09-03T00:50:46.152Z,0.00
2018-09-03T00:51:46.186Z,0.00
2018-09-03T00:52:46.218Z,0.00
2018-09-03T00:53:46.256Z,0.00
2018-09-03T00:54:46.287Z,0.00
2018-09-03T00:55:46.323Z,0.00
2018-09-03T00:56:46.353Z,0.00
2018-09-03T00:57:46.388Z,0.00
2018-09-03T00:58:46.423Z,0.00
2018-09-03T00:59:46.455Z,0.00
2018-09-03T01:00:46.493Z,0.00
2018-09-03T01:01:46.522Z,0.00
2018-09-03T01:02:46.555Z,0.00
2018-09-03T01:03:46.591Z,0.00
2018-09-03T01:04:46.623Z,0.00
2018-09-03T01:05:46.659Z,0.00
2018-09-03T01:06:46.691Z,0.00
2018-09-03T01:07:46.724Z,0.00
2018-09-03T01:08:46.757Z,0.00
2018-09-03T01:09:46.791Z,0.00
2018-09-03T01:10:46.824Z,0.00
2018-09-03T01:11:46.861Z,0.00
2018-09-03T01:12:46.893Z,0.00
2018-09-03T01:13:46.925Z,0.00
2018-09-03T01:14:46.961Z,0.00
2018-09-03T01:15:46.993Z,0.00
2018-09-03T01:16:47.032Z,0.00
2018-09-03T01:17:47.060Z,0.00
2018-09-03T01:18:47.097Z,0.00
2018-09-03T01:19:47.128Z,0.00
2018-09-03T01:20:47.160Z,0.00
2018-09-03T01:21:47.195Z,0.00
2018-09-03T01:22:47.229Z,0.00
2018-09-03T01:23:47.263Z,0.00
2018-09-03T01:24:47.297Z,0.00
2018-09-03T01:25:47.329Z,0.00
2018-09-03T01:26:47.364Z,0.00
2018-09-03T01:27:47.397Z,0.00
2018-09-03T01:28:47.430Z,0.00
2018-09-03T01:29:47.464Z,0.00
2018-09-03T01:30:47.501Z,0.00
2018-09-03T01:31:47.533Z,0.00
2018-09-03T01:32:47.565Z,0.00
2018-09-03T01:33:47.599Z,0.00
2018-09-03T01:34:47.633Z,0.00
2018-09-03T01:35:47.667Z,0.00
2018-09-03T01:36:47.700Z,0.00
2018-09-03T01:37:47.739Z,0.00
2018-09-03T01:38:47.767Z,0.00
2018-09-03T01:39:47.803Z,0.00
2018-09-03T01:40:47.837Z,0.00
2018-09-03T01:41:47.869Z,0.00
2018-09-03T01:42:47.904Z,0.00
2018-09-03T01:43:47.936Z,0.00
2018-09-03T01:44:47.968Z,0.00
2018-09-03T01:45:48.003Z,0.00
2018-09-03T01:46:48.037Z,0.00
2018-09-03T01:47:48.073Z,0.00
2018-09-03T01:48:48.106Z,0.00
2018-09-03T01:49:48.139Z,0.00
2018-09-03T01:50:48.172Z,0.00
2018-09-03T01:51:48.207Z,0.00
2018-09-03T01:52:48.238Z,0.00
2018-09-03T01:53:48.272Z,0.00
2018-09-03T01:54:48.305Z,0.00
2018-09-03T01:55:48.341Z,0.00
2018-09-03T01:56:48.372Z,0.00
2018-09-03T01:57:48.407Z,0.00
2018-09-03T01:58:48.440Z,0.00
2018-09-03T01:59:48.473Z,0.00
2018-09-03T02:00:48.507Z,0.00
2018-09-03T02:01:48.540Z,0.00
2018-09-03T02:02:48.575Z,0.00
2018-09-03T02:03:48.612Z,0.00
2018-09-03T02:04:48.641Z,0.00
2018-09-03T02:05:48.676Z,0.00
2018-09-03T02:06:48.711Z,0.00
2018-09-03T02:07:48.743Z,0.00
2018-09-03T02:08:48.777Z,0.00
2018-09-03T02:09:48.811Z,0.00
2018-09-03T02:10:48.846Z,0.00
2018-09-03T02:11:48.878Z,0.00
2018-09-03T02:12:48.910Z,0.00
2018-09-03T02:13:48.944Z,0.00
2018-09-03T02:14:48.978Z,0.00
2018-09-03T02:15:49.013Z,0.00
2018-09-03T02:16:49.050Z,0.00
2018-09-03T02:17:49.078Z,0.00
2018-09-03T02:18:49.116Z,0.00
2018-09-03T02:19:49.147Z,0.00
2018-09-03T02:20:49.180Z,0.00
2018-09-03T02:21:49.213Z,0.00
2018-09-03T02:22:49.247Z,0.00
2018-09-03T02:23:49.280Z,0.00
2018-09-03T02:24:49.314Z,0.00
2018-09-03T02:25:49.348Z,0.00
2018-09-03T02:26:49.384Z,0.00
2018-09-03T02:27:49.415Z,0.00
2018-09-03T02:28:49.448Z,0.00
2018-09-03T02:29:49.482Z,0.00
2018-09-03T02:30:49.515Z,0.00
2018-09-03T02:31:49.552Z,0.00
2018-09-03T02:32:49.582Z,0.00
2018-09-03T02:33:49.618Z,0.00
2018-09-03T02:34:49.650Z,0.00
2018-09-03T02:35:49.685Z,0.00
2018-09-03T02:36:49.717Z,0.00
2018-09-03T02:37:49.756Z,0.00
2018-09-03T02:38:49.793Z,0.00
2018-09-03T02:39:49.820Z,0.00
2018-09-03T02:40:49.851Z,0.00
2018-09-03T02:41:49.886Z,0.00
2018-09-03T02:42:49.919Z,0.00
2018-09-03T02:43:49.953Z,0.00
2018-09-03T02:44:49.989Z,0.00
2018-09-03T02:45:50.020Z,0.00
2018-09-03T02:46:50.058Z,0.00
2018-09-03T02:47:50.091Z,0.00
2018-09-03T02:48:50.123Z,0.00
2018-09-03T02:49:50.155Z,0.00
2018-09-03T02:50:50.198Z,0.00
2018-09-03T02:51:50.222Z,0.00
2018-09-03T02:52:50.257Z,0.00
2018-09-03T02:53:50.289Z,0.00
2018-09-03T02:54:50.323Z,0.00
2018-09-03T02:55:50.355Z,0.00
2018-09-03T02:56:50.391Z,0.00
2018-09-03T02:57:50.425Z,0.00
2018-09-03T02:58:50.457Z,0.00
2018-09-03T02:59:50.489Z,0.00
2018-09-03T03:00:50.523Z,0.00
2018-09-03T03:01:50.556Z,0.00
2018-09-03T03:02:50.591Z,0.00
2018-09-03T03:03:50.628Z,0.00
2018-09-03T03:04:50.658Z,0.00
2018-09-03T03:05:50.692Z,0.00
2018-09-03T03:06:50.728Z,0.00
2018-09-03T03:07:50.760Z,0.00
2018-09-03T03:08:50.791Z,0.00
2018-09-03T03:09:50.824Z,0.00
2018-09-03T03:10:50.860Z,0.00
2018-09-03T03:11:50.986Z,0.00
2018-09-03T03:12:50.925Z,0.00
2018-09-03T03:13:50.961Z,0.00
2018-09-03T03:14:50.996Z,0.00
2018-09-03T03:15:51.029Z,0.00
2018-09-03T03:16:51.061Z,0.00
2018-09-03T03:17:51.095Z,0.00
2018-09-03T03:18:51.131Z,0.00
2018-09-03T03:19:51.217Z,0.00
2018-09-03T03:20:51.195Z,0.00
2018-09-03T03:21:51.228Z,0.00
2018-09-03T03:22:51.262Z,0.00
2018-09-03T03:23:51.301Z,0.00
2018-09-03T03:24:51.329Z,0.00
2018-09-03T03:25:51.363Z,0.00
2018-09-03T03:26:51.396Z,0.00
2018-09-03T03:27:51.434Z,0.00
2018-09-03T03:28:51.462Z,0.00
2018-09-03T03:29:51.504Z,0.00
2018-09-03T03:30:51.531Z,0.00
2018-09-03T03:31:51.565Z,0.00
2018-09-03T03:32:51.596Z,0.00
2018-09-03T03:33:51.630Z,0.00
2018-09-03T03:34:51.665Z,0.00
2018-09-03T03:35:51.697Z,0.00
2018-09-03T03:36:51.734Z,0.00
2018-09-03T03:37:51.765Z,0.00
2018-09-03T03:38:51.797Z,0.00
2018-09-03T03:39:51.833Z,0.00
2018-09-03T03:40:51.931Z,0.00
2018-09-03T03:41:51.899Z,0.00
2018-09-03T03:42:51.932Z,0.00
2018-09-03T03:43:51.969Z,0.00
2018-09-03T03:44:51.998Z,0.00
2018-09-03T03:45:52.033Z,0.00
2018-09-03T03:46:52.065Z,0.00
2018-09-03T03:47:52.100Z,0.00
2018-09-03T03:48:52.133Z,0.00
2018-09-03T03:49:52.168Z,0.00
2018-09-03T03:50:52.201Z,0.00
2018-09-03T03:51:52.237Z,0.00
2018-09-03T03:52:52.267Z,0.00
2018-09-03T03:53:52.300Z,0.00
2018-09-03T03:54:52.336Z,0.00
2018-09-03T03:55:52.368Z,0.00
2018-09-03T03:56:52.400Z,0.00
2018-09-03T03:57:52.434Z,0.00
2018-09-03T03:58:52.468Z,0.00
2018-09-03T03:59:52.502Z,0.00
2018-09-03T04:00:52.534Z,0.00
2018-09-03T04:01:52.569Z,0.00
2018-09-03T04:02:52.604Z,0.00
2018-09-03T04:03:52.637Z,0.00
2018-09-03T04:04:52.668Z,0.00
2018-09-03T04:05:52.702Z,0.00
2018-09-03T04:06:52.738Z,0.00
2018-09-03T04:07:52.769Z,0.00
2018-09-03T04:08:52.802Z,0.00
2018-09-03T04:09:52.835Z,0.00
2018-09-03T04:10:52.871Z,0.00
2018-09-03T04:11:52.906Z,0.00
2018-09-03T04:12:52.935Z,0.00
2018-09-03T04:13:52.968Z,0.00
2018-09-03T04:14:53.003Z,0.00
2018-09-03T04:15:53.037Z,0.00
2018-09-03T04:16:53.069Z,0.00
2018-09-03T04:17:53.102Z,0.00
2018-09-03T04:18:53.137Z,0.00
2018-09-03T04:19:53.171Z,0.00
2018-09-03T04:20:53.205Z,0.00
2018-09-03T04:21:53.237Z,0.00
2018-09-03T04:22:53.360Z,0.00
2018-09-03T04:23:53.304Z,4.00
2018-09-03T04:24:53.338Z,4.00
2018-09-03T04:25:53.371Z,0.00
2018-09-03T04:26:53.405Z,4.00
2018-09-03T04:27:53.439Z,8.00
2018-09-03T04:28:53.550Z,4.00
2018-09-03T04:29:53.505Z,8.00
2018-09-03T04:30:53.545Z,8.00
2018-09-03T04:31:53.573Z,8.00
2018-09-03T04:32:53.614Z,12.00
2018-09-03T04:33:53.639Z,12.00
2018-09-03T04:34:53.673Z,16.00
2018-09-03T04:35:53.709Z,20.00
2018-09-03T04:36:53.738Z,28.00
2018-09-03T04:37:53.774Z,28.00
2018-09-03T04:38:53.888Z,32.00
2018-09-03T04:39:53.841Z,36.00
2018-09-03T04:40:53.876Z,40.00
2018-09-03T04:41:53.907Z,44.00
2018-09-03T04:42:53.945Z,48.00
2018-09-03T04:43:53.981Z,56.00
2018-09-03T04:44:54.007Z,60.00
2018-09-03T04:45:54.043Z,64.00
2018-09-03T04:46:54.075Z,72.00
2018-09-03T04:47:54.159Z,80.00
2018-09-03T04:48:54.141Z,88.00
2018-09-03T04:49:54.175Z,96.00
2018-09-03T04:50:54.209Z,112.00
2018-09-03T04:51:54.242Z,124.00
2018-09-03T04:52:54.275Z,136.00
2018-09-03T04:53:54.308Z,148.00
2018-09-03T04:54:54.345Z,164.00
2018-09-03T04:55:54.377Z,176.00
2018-09-03T04:56:54.410Z,188.00
2018-09-03T04:57:54.443Z,204.00
2018-09-03T04:58:54.477Z,220.00
2018-09-03T04:59:54.512Z,228.00
2018-09-03T05:00:54.543Z,240.00
2018-09-03T05:01:54.578Z,248.00
2018-09-03T05:02:54.612Z,256.00
2018-09-03T05:03:54.643Z,268.00
2018-09-03T05:04:54.679Z,280.00
2018-09-03T05:05:54.730Z,292.00
2018-09-03T05:06:54.745Z,308.00
2018-09-03T05:07:54.778Z,324.00
2018-09-03T05:08:54.811Z,336.00
2018-09-03T05:09:54.847Z,352.00
2018-09-03T05:10:54.879Z,368.00
2018-09-03T05:11:55.039Z,380.00
2018-09-03T05:12:54.946Z,396.00
2018-09-03T05:13:54.979Z,412.00
2018-09-03T05:14:55.021Z,428.00
2018-09-03T05:15:55.046Z,452.00
2018-09-03T05:16:55.079Z,472.00
2018-09-03T05:17:55.114Z,492.00
2018-09-03T05:18:55.147Z,508.00
2018-09-03T05:19:55.180Z,524.00
2018-09-03T05:20:55.213Z,532.00
2018-09-03T05:21:55.245Z,540.00
2018-09-03T05:22:55.281Z,548.00
2018-09-03T05:23:55.314Z,560.00
2018-09-03T05:24:55.348Z,576.00
2018-09-03T05:25:55.385Z,608.00
2018-09-03T05:26:55.414Z,652.00
2018-09-03T05:27:55.449Z,708.00
2018-09-03T05:28:55.481Z,764.00
2018-09-03T05:29:55.513Z,820.00
2018-09-03T05:30:55.549Z,876.00
2018-09-03T05:31:55.584Z,940.00
2018-09-03T05:32:55.616Z,1036.00
2018-09-03T05:33:55.651Z,1084.00
2018-09-03T05:34:55.683Z,1092.00
2018-09-03T05:35:55.717Z,1092.00
2018-09-03T05:36:55.751Z,1100.00
2018-09-03T05:37:55.783Z,1124.00
2018-09-03T05:38:55.818Z,1148.00
2018-09-03T05:39:55.852Z,1176.00
2018-09-03T05:40:55.885Z,1204.00
2018-09-03T05:41:55.919Z,1236.00
2018-09-03T05:42:55.969Z,1264.00
2018-09-03T05:43:56.047Z,1292.00
2018-09-03T05:44:56.019Z,1328.00
2018-09-03T05:45:56.053Z,1360.00
2018-09-03T05:46:56.088Z,1384.00
2018-09-03T05:47:56.120Z,1380.00
2018-09-03T05:48:56.154Z,1396.00
2018-09-03T05:49:56.188Z,1460.00
2018-09-03T05:50:56.222Z,1536.00
2018-09-03T05:51:56.256Z,1592.00
2018-09-03T05:52:56.288Z,1628.00
2018-09-03T05:53:56.322Z,1660.00
2018-09-03T05:54:56.356Z,1720.00
2018-09-03T05:55:56.391Z,1820.00
2018-09-03T05:56:56.424Z,1900.00
2018-09-03T05:57:56.457Z,2008.00
2018-09-03T05:58:56.495Z,2056.00
2018-09-03T05:59:56.525Z,2128.00
2018-09-03T06:00:56.558Z,2232.00
2018-09-03T06:01:56.593Z,2240.00
2018-09-03T06:02:56.626Z,2232.00
2018-09-03T06:03:56.661Z,2260.00
2018-09-03T06:04:56.725Z,2336.00
2018-09-03T06:05:56.727Z,2516.00
2018-09-03T06:06:56.763Z,2732.00
2018-09-03T06:07:56.795Z,2740.00
2018-09-03T06:08:56.829Z,2724.00
2018-09-03T06:09:56.862Z,2716.00
2018-09-03T06:10:56.904Z,2680.00
2018-09-03T06:11:56.932Z,2624.00
2018-09-03T06:12:56.963Z,2612.00
2018-09-03T06:13:56.997Z,2624.00
2018-09-03T06:14:57.031Z,2748.00
2018-09-03T06:15:57.064Z,2912.00
2018-09-03T06:16:57.101Z,3196.00
2018-09-03T06:17:57.140Z,3552.00
2018-09-03T06:18:57.167Z,3864.00
2018-09-03T06:19:57.204Z,4128.00
2018-09-03T06:20:57.236Z,4344.00
2018-09-03T06:21:57.268Z,4420.00
2018-09-03T06:22:57.302Z,4376.00
2018-09-03T06:23:57.337Z,4428.00
2018-09-03T06:24:57.370Z,4392.00
2018-09-03T06:25:57.404Z,4404.00
2018-09-03T06:26:57.439Z,4456.00
2018-09-03T06:27:57.473Z,4572.00
2018-09-03T06:28:57.505Z,4600.00
2018-09-03T06:29:57.540Z,4600.00
2018-09-03T06:30:57.574Z,4636.00
2018-09-03T06:31:57.609Z,4652.00
2018-09-03T06:32:57.689Z,4784.00
2018-09-03T06:33:57.676Z,4860.00
2018-09-03T06:34:57.712Z,4900.00
2018-09-03T06:35:57.759Z,4864.00
2018-09-03T06:36:57.782Z,4392.00
2018-09-03T06:37:57.812Z,3752.00
2018-09-03T06:38:57.849Z,3064.00
2018-09-03T06:39:57.882Z,2924.00
2018-09-03T06:40:57.917Z,3296.00
2018-09-03T06:41:57.951Z,3960.00
2018-09-03T06:42:57.984Z,4776.00
2018-09-03T06:43:58.019Z,5328.00
2018-09-03T06:44:58.054Z,5584.00
2018-09-03T06:45:58.098Z,5748.00
2018-09-03T06:46:58.123Z,5892.00
2018-09-03T06:47:58.159Z,5956.00
2018-09-03T06:48:58.192Z,5892.00
2018-09-03T06:49:58.226Z,5820.00
2018-09-03T06:50:58.261Z,5752.00
2018-09-03T06:51:58.295Z,5684.00
2018-09-03T06:52:58.331Z,5616.00
2018-09-03T06:53:58.364Z,5644.00
2018-09-03T06:54:58.399Z,5708.00
2018-09-03T06:55:58.433Z,5780.00
2018-09-03T06:56:58.469Z,5896.00
2018-09-03T06:57:58.502Z,6012.00
2018-09-03T06:58:58.537Z,6104.00
2018-09-03T06:59:58.571Z,6196.00
2018-09-03T07:00:58.606Z,6300.00
2018-09-03T07:01:58.641Z,6412.00
2018-09-03T07:02:58.676Z,6504.00
2018-09-03T07:03:58.711Z,6596.00
2018-09-03T07:04:58.745Z,6652.00
2018-09-03T07:05:58.780Z,6680.00
2018-09-03T07:06:58.814Z,6660.00
2018-09-03T07:07:58.849Z,6620.00
2018-09-03T07:08:58.884Z,6536.00
2018-09-03T07:09:58.917Z,6508.00
2018-09-03T07:10:58.954Z,6520.00
2018-09-03T07:11:58.988Z,6600.00
2018-09-03T07:12:59.022Z,6760.00
2018-09-03T07:13:59.060Z,6976.00
2018-09-03T07:14:59.092Z,7148.00
2018-09-03T07:15:59.127Z,7172.00
2018-09-03T07:16:59.161Z,7100.00
2018-09-03T07:17:59.196Z,7056.00
2018-09-03T07:18:59.230Z,7080.00
2018-09-03T07:19:59.265Z,7272.00
2018-09-03T07:20:59.300Z,7604.00
2018-09-03T07:21:59.335Z,7852.00
2018-09-03T07:22:59.369Z,7956.00
2018-09-03T07:23:59.406Z,8028.00
2018-09-03T07:24:59.439Z,7992.00
2018-09-03T07:25:59.478Z,7900.00
2018-09-03T07:26:59.511Z,7828.00
2018-09-03T07:27:59.546Z,7780.00
2018-09-03T07:28:59.636Z,7772.00
2018-09-03T07:29:59.617Z,7800.00
2018-09-03T07:30:59.650Z,7980.00
2018-09-03T07:31:59.686Z,8168.00
2018-09-03T07:32:59.720Z,8372.00
2018-09-03T07:33:59.758Z,8572.00
2018-09-03T07:34:59.806Z,8780.00
2018-09-03T07:35:59.828Z,8936.00
2018-09-03T07:36:59.862Z,9112.00
2018-09-03T07:37:59.902Z,9320.00
2018-09-03T07:38:59.937Z,9444.00
2018-09-03T07:39:59.970Z,9564.00
2018-09-03T07:41:00.011Z,9580.00
2018-09-03T07:42:00.043Z,9544.00
2018-09-03T07:43:00.084Z,9524.00
2018-09-03T07:44:00.151Z,9476.00
2018-09-03T07:45:00.145Z,9400.00
2018-09-03T07:46:00.181Z,9304.00
2018-09-03T07:47:00.217Z,9244.00
2018-09-03T07:48:00.252Z,9212.00
2018-09-03T07:49:00.341Z,9124.00
2018-09-03T07:50:00.327Z,9008.00
2018-09-03T07:51:00.363Z,8904.00
2018-09-03T07:52:00.395Z,8848.00
2018-09-03T07:53:00.430Z,8856.00
2018-09-03T07:54:00.466Z,8944.00
2018-09-03T07:55:00.503Z,9092.00
2018-09-03T07:56:00.540Z,9196.00
2018-09-03T07:57:00.576Z,9284.00
2018-09-03T07:58:00.610Z,9340.00
2018-09-03T07:59:00.647Z,9396.00
2018-09-03T08:00:00.684Z,9548.00
2018-09-03T08:01:00.728Z,9824.00
2018-09-03T08:02:00.755Z,10180.00
2018-09-03T08:03:00.793Z,10536.00
2018-09-03T08:04:00.828Z,10824.00
2018-09-03T08:05:00.863Z,11076.00
2018-09-03T08:06:00.900Z,11292.00
2018-09-03T08:07:00.935Z,11560.00
2018-09-03T08:08:00.979Z,11784.00
2018-09-03T08:09:01.009Z,12012.00
2018-09-03T08:10:01.045Z,12188.00
2018-09-03T08:11:01.082Z,12476.00
2018-09-03T08:12:01.133Z,12584.00
2018-09-03T08:13:01.252Z,12584.00
2018-09-03T08:14:01.208Z,12588.00
2018-09-03T08:15:01.228Z,12672.00
2018-09-03T08:16:01.265Z,12772.00
2018-09-03T08:17:01.304Z,12760.00
2018-09-03T08:18:01.336Z,12804.00
2018-09-03T08:19:01.373Z,12820.00
2018-09-03T08:20:01.444Z,12892.00
2018-09-03T08:21:01.448Z,12968.00
2018-09-03T08:22:01.484Z,13160.00
2018-09-03T08:23:01.520Z,13232.00
2018-09-03T08:24:01.558Z,13272.00
2018-09-03T08:25:01.592Z,13080.00
2018-09-03T08:26:01.648Z,13048.00
2018-09-03T08:27:01.665Z,12996.00
2018-09-03T08:28:01.702Z,13036.00
2018-09-03T08:29:01.738Z,13072.00
2018-09-03T08:30:01.797Z,13148.00
2018-09-03T08:31:01.813Z,13256.00
2018-09-03T08:32:01.850Z,13308.00
2018-09-03T08:33:01.885Z,13336.00
2018-09-03T08:34:01.922Z,13360.00
2018-09-03T08:35:01.964Z,13392.00
2018-09-03T08:36:01.995Z,13424.00
2018-09-03T08:37:02.032Z,13452.00
2018-09-03T08:38:02.073Z,13492.00
2018-09-03T08:39:02.105Z,13588.00
2018-09-03T08:40:02.180Z,13728.00
2018-09-03T08:41:02.177Z,13928.00
2018-09-03T08:42:02.232Z,14224.00
2018-09-03T08:43:02.251Z,14564.00
2018-09-03T08:44:02.289Z,14764.00
2018-09-03T08:45:02.324Z,14892.00
2018-09-03T08:46:02.361Z,14976.00
2018-09-03T08:47:02.398Z,15080.00
2018-09-03T08:48:02.436Z,15164.00
2018-09-03T08:49:02.469Z,15228.00
2018-09-03T08:50:02.506Z,15424.00
2018-09-03T08:51:02.550Z,15608.00
2018-09-03T08:52:02.580Z,15672.00
2018-09-03T08:53:02.617Z,15956.00
2018-09-03T08:54:02.672Z,16100.00
2018-09-03T08:55:02.705Z,16136.00
2018-09-03T08:56:02.743Z,16084.00
2018-09-03T08:57:02.782Z,15996.00
2018-09-03T08:58:02.825Z,15936.00
2018-09-03T08:59:02.843Z,16116.00
2018-09-03T09:00:02.875Z,16832.00
2018-09-03T09:01:02.912Z,18272.00
2018-09-03T09:02:02.949Z,18336.00
2018-09-03T09:03:02.986Z,18592.00
2018-09-03T09:04:03.022Z,18496.00
2018-09-03T09:05:03.061Z,18208.00
2018-09-03T09:06:03.097Z,18016.00
2018-09-03T09:07:03.137Z,18048.00
2018-09-03T09:08:03.172Z,18400.00
2018-09-03T09:09:03.207Z,19040.00
2018-09-03T09:10:03.246Z,19552.00
2018-09-03T09:11:03.285Z,19840.00
2018-09-03T09:12:03.321Z,19712.00
2018-09-03T09:13:03.359Z,19744.00
2018-09-03T09:14:03.395Z,19872.00
2018-09-03T09:15:03.434Z,20096.00
2018-09-03T09:16:03.470Z,20256.00
2018-09-03T09:17:03.507Z,20096.00
2018-09-03T09:18:03.545Z,19712.00
2018-09-03T09:19:03.582Z,19072.00
2018-09-03T09:20:03.622Z,18496.00
2018-09-03T09:21:03.659Z,18208.00
2018-09-03T09:22:03.697Z,18176.00
2018-09-03T09:23:03.734Z,18400.00
2018-09-03T09:24:03.810Z,18976.00
2018-09-03T09:25:03.855Z,19584.00
2018-09-03T09:26:03.848Z,20128.00
2018-09-03T09:27:03.886Z,20160.00
2018-09-03T09:28:03.924Z,20672.00
2018-09-03T09:29:03.962Z,21312.00
2018-09-03T09:30:03.999Z,21440.00
2018-09-03T09:31:04.038Z,21312.00
2018-09-03T09:32:04.077Z,21056.00
2018-09-03T09:33:04.113Z,21344.00
2018-09-03T09:34:04.154Z,20736.00
2018-09-03T09:35:04.191Z,20384.00
2018-09-03T09:36:04.229Z,20160.00
2018-09-03T09:37:04.266Z,19936.00
2018-09-03T09:38:04.305Z,19776.00
2018-09-03T09:39:04.344Z,19456.00
2018-09-03T09:40:04.382Z,19200.00
2018-09-03T09:41:04.420Z,19488.00
2018-09-03T09:42:04.565Z,19904.00
2018-09-03T09:43:04.585Z,20224.00
2018-09-03T09:44:04.541Z,20480.00
2018-09-03T09:45:04.573Z,23104.00
2018-09-03T09:46:04.614Z,22144.00
2018-09-03T09:47:04.652Z,20640.00
2018-09-03T09:48:04.690Z,21504.00
2018-09-03T09:49:04.728Z,21024.00
2018-09-03T09:50:04.768Z,21216.00
2018-09-03T09:51:04.806Z,21664.00
2018-09-03T09:52:04.844Z,21248.00
2018-09-03T09:53:04.883Z,20704.00
2018-09-03T09:54:04.921Z,20000.00
2018-09-03T09:55:04.961Z,19488.00
2018-09-03T09:56:05.000Z,18848.00
2018-09-03T09:57:05.039Z,20928.00
2018-09-03T09:58:05.077Z,24128.00
2018-09-03T09:59:05.117Z,20832.00
2018-09-03T10:00:05.161Z,20096.00
2018-09-03T10:01:05.193Z,20448.00
2018-09-03T10:02:05.234Z,21024.00
2018-09-03T10:03:05.274Z,21792.00
2018-09-03T10:04:05.312Z,22624.00
2018-09-03T10:05:05.350Z,22464.00
2018-09-03T10:06:05.390Z,21824.00
2018-09-03T10:07:05.429Z,21504.00
2018-09-03T10:08:05.468Z,21216.00
2018-09-03T10:09:05.506Z,20864.00
2018-09-03T10:10:05.545Z,20896.00
2018-09-03T10:11:05.585Z,21216.00
2018-09-03T10:12:05.624Z,22048.00
2018-09-03T10:13:05.663Z,22688.00
2018-09-03T10:14:05.715Z,23200.00
2018-09-03T10:15:05.754Z,24096.00
2018-09-03T10:16:05.795Z,29728.00
2018-09-03T10:17:05.820Z,22848.00
2018-09-03T10:18:05.859Z,22912.00
2018-09-03T10:19:05.901Z,24352.00
2018-09-03T10:20:05.944Z,24352.00
2018-09-03T10:21:05.977Z,24576.00
2018-09-03T10:22:06.019Z,23808.00
2018-09-03T10:23:06.056Z,23456.00
2018-09-03T10:24:06.096Z,24064.00
2018-09-03T10:25:06.138Z,25088.00
2018-09-03T10:26:06.188Z,26528.00
2018-09-03T10:27:06.222Z,28480.00
2018-09-03T10:28:06.255Z,32736.00
2018-09-03T10:29:06.294Z,30656.00
2018-09-03T10:30:06.334Z,30592.00
2018-09-03T10:31:06.374Z,31328.00
2018-09-03T10:32:06.415Z,33632.00
2018-09-03T10:33:06.453Z,34848.00
2018-09-03T10:34:06.493Z,34944.00
2018-09-03T10:35:06.533Z,37568.00
2018-09-03T10:36:06.574Z,41024.00
2018-09-03T10:37:06.614Z,39424.00
2018-09-03T10:38:06.664Z,38304.00
2018-09-03T10:39:06.694Z,37920.00
2018-09-03T10:40:06.735Z,42880.00
2018-09-03T10:41:06.779Z,48192.00
2018-09-03T10:42:06.816Z,52480.00
2018-09-03T10:43:06.857Z,49376.00
2018-09-03T10:44:06.898Z,42240.00
2018-09-03T10:45:06.953Z,40096.00
2018-09-03T10:46:07.311Z,40672.00
2018-09-03T10:47:07.095Z,63968.00
2018-09-03T10:48:07.066Z,44992.00
2018-09-03T10:49:07.105Z,46144.00
2018-09-03T10:50:07.171Z,52608.00
2018-09-03T10:51:07.191Z,44896.00
2018-09-03T10:52:07.231Z,49632.00
2018-09-03T10:53:07.274Z,53312.00
2018-09-03T10:54:07.316Z,57440.00
2018-09-03T10:55:07.359Z,59072.00
2018-09-03T10:56:07.415Z,51008.00
2018-09-03T10:57:07.443Z,69024.00
2018-09-03T10:58:07.487Z,54944.00
2018-09-03T11:00:07.574Z,46400.00
2018-09-03T11:01:07.619Z,106336.00
2018-09-03T11:02:08.470Z,48864.00
2018-09-03T11:03:08.740Z,35520.00
2018-09-03T11:04:07.976Z,31904.00
2018-09-03T11:06:07.837Z,29216.00
2018-09-03T11:07:07.883Z,28672.00
2018-09-03T11:08:07.925Z,29696.00
2018-09-03T11:09:07.970Z,32960.00
2018-09-03T11:10:08.019Z,111264.00
2018-09-03T11:11:08.125Z,110560.00
2018-09-03T11:12:08.103Z,45664.00
2018-09-03T11:13:08.150Z,62112.00
2018-09-03T11:14:08.195Z,65472.00
2018-09-03T11:15:08.237Z,56000.00
2018-09-03T11:16:08.282Z,52736.00
2018-09-03T11:17:08.339Z,50656.00
2018-09-03T11:18:08.371Z,50784.00
2018-09-03T11:19:08.420Z,75872.00
2018-09-03T11:20:08.462Z,128480.00
2018-09-03T11:21:08.608Z,87968.00
2018-09-03T11:22:08.553Z,70592.00
2018-09-03T11:23:08.601Z,64032.00
2018-09-03T11:24:08.646Z,62112.00
2018-09-03T11:25:08.702Z,59168.00
2018-09-03T11:26:08.741Z,58080.00
2018-09-03T11:27:08.782Z,49248.00
2018-09-03T11:28:08.829Z,41984.00
2018-09-03T11:29:08.876Z,39840.00
2018-09-03T11:30:08.921Z,35520.00
2018-09-03T11:31:08.968Z,29472.00
2018-09-03T11:32:09.018Z,27648.00
2018-09-03T11:33:09.059Z,24736.00
2018-09-03T11:34:09.105Z,23712.00
2018-09-03T11:35:09.166Z,22816.00
2018-09-03T11:36:09.201Z,21824.00
2018-09-03T11:37:09.245Z,20640.00
2018-09-03T11:38:09.290Z,19008.00
2018-09-03T11:39:09.336Z,17408.00
2018-09-03T11:40:09.380Z,15840.00
2018-09-03T11:41:09.423Z,14916.00
2018-09-03T11:42:09.469Z,14348.00
2018-09-03T11:43:09.515Z,13980.00
2018-09-03T11:44:09.557Z,13708.00
2018-09-03T11:45:09.599Z,13276.00
2018-09-03T11:46:09.643Z,12796.00
2018-09-03T11:47:09.709Z,12132.00
2018-09-03T11:48:09.731Z,11680.00
2018-09-03T11:49:09.772Z,11304.00
2018-09-03T11:50:09.816Z,10956.00
2018-09-03T11:51:09.858Z,10524.00
2018-09-03T11:52:09.901Z,10172.00
2018-09-03T11:53:09.943Z,9988.00
2018-09-03T11:54:09.985Z,9948.00
2018-09-03T11:55:10.029Z,9992.00
2018-09-03T11:56:10.072Z,10060.00
2018-09-03T11:57:10.110Z,10252.00
2018-09-03T11:58:10.160Z,10616.00
2018-09-03T11:59:10.194Z,11112.00
2018-09-03T12:00:10.234Z,11648.00
2018-09-03T12:01:10.278Z,12072.00
2018-09-03T12:02:10.410Z,12472.00
2018-09-03T12:03:10.358Z,13080.00
2018-09-03T12:04:10.403Z,13956.00
2018-09-03T12:05:10.440Z,15060.00
2018-09-03T12:06:10.481Z,16152.00
2018-09-03T12:07:10.523Z,17504.00
2018-09-03T12:08:10.565Z,18784.00
2018-09-03T12:09:10.602Z,19904.00
2018-09-03T12:10:10.643Z,20800.00
2018-09-03T12:11:10.682Z,21696.00
2018-09-03T12:12:10.724Z,22656.00
2018-09-03T12:13:10.764Z,23744.00
2018-09-03T12:14:10.804Z,25952.00
2018-09-03T12:15:10.845Z,27200.00
2018-09-03T12:16:10.886Z,27584.00
2018-09-03T12:17:10.925Z,27744.00
2018-09-03T12:18:10.966Z,29472.00
2018-09-03T12:19:11.006Z,36992.00
2018-09-03T12:20:11.047Z,34432.00
2018-09-03T12:21:11.145Z,55200.00
2018-09-03T12:22:11.128Z,38080.00
2018-09-03T12:23:11.168Z,36864.00
2018-09-03T12:24:11.211Z,40384.00
2018-09-03T12:25:11.250Z,35648.00
2018-09-03T12:26:11.291Z,34464.00
2018-09-03T12:27:11.333Z,33344.00